Time;durP1;ratioP1;P1;durP2;ratioP2;P2;SDS_P1;SDS_P2;PMS_P1;PMS_P2;Temp;Humidity;BMP_temperature;BMP_pressure;BME280_temperature;BME280_humidity;BME280_pressure;Samples;Min_cycle;Max_cycle;Signal;HPM_P1;HPM_P2
2022/12/23 00:00:59;;;;;;;;;0.50;0.25;;;;;15.45;71.15;100377.69;5062060;28;45229;-54
2022/12/23 00:03:25;;;;;;;;;1.75;0.00;;;;;15.43;71.03;100374.22;5062186;28;45366;-54
2022/12/23 00:05:51;;;;;;;;;0.75;0.00;;;;;15.44;71.32;100374.19;5062129;28;45482;-53
2022/12/23 00:08:17;;;;;;;;;0.00;0.00;;;;;15.47;71.02;100381.13;5061878;28;45335;-54
2022/12/23 00:10:42;;;;;;;;;0.00;0.00;;;;;15.46;71.36;100387.34;5077637;28;45256;-52
2022/12/23 00:16:08;;;;;;;;;0.25;0.00;;;;;15.44;71.02;100387.41;5062008;28;45279;-53
2022/12/23 00:18:34;;;;;;;;;1.00;0.50;;;;;15.40;71.28;100385.78;5061961;28;46110;-53
2022/12/23 00:21:05;;;;;;;;;0.00;0.00;;;;;15.38;71.20;100381.47;5061695;28;45422;-53
2022/12/23 00:23:35;;;;;;;;;0.00;0.00;;;;;15.39;71.32;100381.41;5061793;28;45354;-53
2022/12/23 00:26:01;;;;;;;;;0.75;0.50;;;;;15.39;71.77;100377.91;5061388;28;45516;-53
2022/12/23 00:28:28;;;;;;;;;0.75;0.75;;;;;15.34;71.89;100391.31;5061747;28;46313;-54
2022/12/23 00:31:02;;;;;;;;;1.00;1.00;;;;;15.33;71.40;100386.09;5061562;28;45258;-54
2022/12/23 00:33:34;;;;;;;;;1.00;1.00;;;;;15.33;71.51;100388.75;5061914;28;45205;-53
2022/12/23 00:36:00;;;;;;;;;1.00;0.25;;;;;15.31;71.59;100390.59;5061540;28;45550;-52
2022/12/23 00:44:01;;;;;;;;;2.00;0.25;;;;;15.26;71.80;100378.41;5061576;28;45157;-53
2022/12/23 00:46:27;;;;;;;;;1.75;1.75;;;;;15.21;72.24;100379.53;5061640;28;45594;-52
2022/12/23 00:51:36;;;;;;;;;0.50;0.50;;;;;15.18;72.13;100383.16;5061068;28;45229;-52
2022/12/23 00:54:02;;;;;;;;;0.25;0.25;;;;;15.17;72.49;100384.06;5061318;28;45571;-53
2022/12/23 00:56:27;;;;;;;;;2.00;0.50;;;;;15.12;72.36;100391.31;5076931;28;45635;-53
2022/12/23 00:58:53;;;;;;;;;0.25;0.25;;;;;15.05;72.17;100395.97;5076936;28;46973;-50
2022/12/23 01:06:47;;;;;;;;;0.50;0.50;;;;;14.97;72.63;100411.28;5061043;28;45285;-50
2022/12/23 01:09:12;;;;;;;;;0.00;0.00;;;;;14.95;72.58;100415.78;5060798;28;45320;-52
2022/12/23 01:11:38;;;;;;;;;0.50;0.50;;;;;14.93;72.34;100423.78;5076482;28;45401;-52
2022/12/23 01:14:03;;;;;;;;;1.50;0.00;;;;;14.89;73.00;100421.28;5061221;28;45438;-53
2022/12/23 01:16:29;;;;;;;;;0.00;0.00;;;;;14.87;72.44;100416.06;5061118;28;45297;-52
2022/12/23 01:18:54;;;;;;;;;1.50;0.25;;;;;14.87;72.65;100415.22;5059663;28;47031;-52
2022/12/23 01:21:19;;;;;;;;;0.00;0.00;;;;;14.85;72.29;100420.53;5060825;28;45263;-51
2022/12/23 01:23:45;;;;;;;;;0.00;0.00;;;;;14.82;72.79;100411.84;5060596;28;45318;-52
2022/12/23 01:26:11;;;;;;;;;0.00;0.00;;;;;14.82;72.54;100420.66;5060595;28;45272;-52
2022/12/23 01:28:36;;;;;;;;;0.50;0.00;;;;;14.81;72.87;100413.63;5060855;28;46078;-52
2022/12/23 01:31:04;;;;;;;;;0.00;0.00;;;;;14.75;73.10;100419.16;5060499;28;45245;-52
2022/12/23 01:33:31;;;;;;;;;0.75;0.75;;;;;14.78;73.18;100425.19;5061006;28;45283;-50
2022/12/23 01:36:03;;;;;;;;;0.00;0.00;;;;;14.76;72.82;100428.81;5076203;28;45458;-51
2022/12/23 01:38:29;;;;;;;;;1.25;0.00;;;;;14.73;72.87;100421.88;5060294;28;46317;-51
2022/12/23 01:40:55;;;;;;;;;0.50;0.50;;;;;14.75;73.04;100420.03;5060364;28;45245;-52
2022/12/23 01:43:21;;;;;;;;;0.67;0.67;;;;;14.72;73.37;100414.00;5060721;28;45238;-53
2022/12/23 01:45:46;;;;;;;;;0.00;0.00;;;;;14.70;72.86;100421.97;5060497;28;45264;-53
2022/12/23 01:48:17;;;;;;;;;0.25;0.25;;;;;14.70;73.25;100418.47;5075942;28;47194;-51
2022/12/23 01:50:50;;;;;;;;;0.50;0.50;;;;;14.69;73.37;100419.38;5060837;28;45418;-53
2022/12/23 01:53:23;;;;;;;;;1.00;1.00;;;;;14.70;73.23;100421.09;5059962;28;45481;-52
2022/12/23 01:56:05;;;;;;;;;0.67;0.67;;;;;14.67;73.14;100419.44;5076152;28;45911;-51
2022/12/23 01:58:35;;;;;;;;;0.00;0.00;;;;;14.69;73.14;100430.84;5060195;28;45227;-50
2022/12/23 02:03:46;;;;;;;;;3.75;2.00;;;;;14.68;73.26;100415.88;5059414;28;45423;-53
2022/12/23 02:09:16;;;;;;;;;1.50;1.50;;;;;14.69;73.54;100414.09;5059869;28;45192;-51
2022/12/23 02:11:51;;;;;;;;;3.25;1.50;;;;;14.69;73.74;100411.44;5060333;28;45513;-52
2022/12/23 02:17:31;;;;;;;;;2.25;1.50;;;;;14.69;73.29;100422.91;5060061;28;45326;-51
2022/12/23 02:20:13;;;;;;;;;0.75;0.75;;;;;14.71;73.17;100430.78;5060034;28;45260;-52
2022/12/23 02:23:13;;;;;;;;;3.00;2.00;;;;;14.70;73.47;100429.03;5060076;28;45467;-53
2022/12/23 02:25:49;;;;;;;;;2.50;1.50;;;;;14.69;73.31;100414.09;5047040;28;45327;-51
2022/12/23 02:28:25;;;;;;;;;1.25;0.00;;;;;14.70;73.29;100418.47;5059715;28;45387;-52
2022/12/23 02:31:08;;;;;;;;;2.25;1.75;;;;;14.70;73.17;100407.88;5075378;28;46237;-52
2022/12/23 02:33:50;;;;;;;;;2.75;1.75;;;;;14.72;73.65;100406.91;5060139;28;45511;-53
2022/12/23 02:36:35;;;;;;;;;2.50;1.25;;;;;14.72;73.13;100403.41;5060974;28;45374;-52
2022/12/23 02:39:00;;;;;;;;;2.50;1.00;;;;;14.73;73.38;100407.75;5063158;28;45304;-50
2022/12/23 02:41:32;;;;;;;;;4.00;0.50;;;;;14.73;73.07;100406.00;5063031;28;45321;-52
2022/12/23 02:44:11;;;;;;;;;0.25;0.25;;;;;14.74;73.50;100420.94;5063344;28;45275;-52
2022/12/23 02:46:47;;;;;;;;;1.75;1.75;;;;;14.74;73.23;100406.84;5063478;28;45342;-49
2022/12/23 02:49:20;;;;;;;;;1.25;1.25;;;;;14.75;73.14;100408.56;5063489;28;45288;-53
2022/12/23 02:51:51;;;;;;;;;1.25;1.25;;;;;14.74;73.36;100410.38;5062779;28;45419;-51
2022/12/23 02:54:27;;;;;;;;;2.25;1.00;;;;;14.76;73.05;100405.00;5062904;28;45243;-53
2022/12/23 02:56:56;;;;;;;;;3.50;1.50;;;;;14.77;72.95;100407.59;5062981;28;45346;-53
2022/12/23 02:59:27;;;;;;;;;1.00;1.00;;;;;14.69;73.20;100387.63;5063008;28;45513;-52
2022/12/23 03:01:54;;;;;;;;;2.75;2.00;;;;;14.79;73.30;100404.88;5062726;27;45391;-53
2022/12/23 03:04:20;;;;;;;;;2.25;1.50;;;;;14.80;73.37;100409.25;5062961;28;45272;-53
2022/12/23 03:06:49;;;;;;;;;1.50;1.50;;;;;14.78;72.82;100408.47;5062993;28;45361;-54
2022/12/23 03:09:21;;;;;;;;;2.25;2.25;;;;;14.79;72.74;100415.47;5062639;28;45212;-54
2022/12/23 03:12:11;;;;;;;;;1.50;1.50;;;;;14.79;73.32;100416.34;5062628;28;46181;-53
2022/12/23 03:14:52;;;;;;;;;6.75;1.50;;;;;14.79;73.25;100405.78;5062797;28;45224;-53
2022/12/23 03:17:30;;;;;;;;;1.25;1.00;;;;;14.80;72.95;100406.63;5062995;28;45350;-53
2022/12/23 03:20:19;;;;;;;;;1.00;1.00;;;;;14.78;73.17;100398.75;5062792;28;45554;-52
2022/12/23 03:23:16;;;;;;;;;0.50;0.50;;;;;14.76;73.02;100394.44;5062594;28;46477;-53
2022/12/23 03:25:52;;;;;;;;;0.50;0.50;;;;;14.78;72.53;100395.25;5062474;28;45406;-52
2022/12/23 03:28:33;;;;;;;;;4.00;2.50;;;;;14.77;72.79;100399.66;5062666;28;45274;-52
2022/12/23 03:31:02;;;;;;;;;2.25;2.25;;;;;14.77;72.40;100397.03;5062482;28;45442;-52
2022/12/23 03:33:32;;;;;;;;;2.25;1.25;;;;;14.77;72.57;100393.53;5062649;28;45394;-53
2022/12/23 03:36:05;;;;;;;;;3.25;1.25;;;;;14.74;72.51;100402.44;5062688;28;45365;-54
2022/12/23 03:38:35;;;;;;;;;3.25;1.75;;;;;14.73;72.44;100395.41;5062595;28;45266;-54
2022/12/23 03:41:06;;;;;;;;;1.00;0.25;;;;;14.74;72.17;100412.13;5062257;28;45354;-53
2022/12/23 03:43:44;;;;;;;;;1.25;1.25;;;;;14.74;72.17;100410.38;5062256;28;45241;-54
2022/12/23 03:46:16;;;;;;;;;1.50;1.25;;;;;14.72;72.75;100404.25;5062464;28;45329;-52
2022/12/23 03:48:47;;;;;;;;;0.75;0.75;;;;;14.74;72.75;100420.06;5062365;28;45233;-54
2022/12/23 03:51:18;;;;;;;;;0.75;0.75;;;;;14.72;72.66;100404.25;5062257;28;45394;-54
2022/12/23 03:53:50;;;;;;;;;2.75;2.00;;;;;14.68;72.59;100394.72;5061908;28;46346;-52
2022/12/23 03:56:31;;;;;;;;;1.50;1.50;;;;;14.67;72.80;100403.56;5062198;28;45304;-54
2022/12/23 03:59:07;;;;;;;;;3.00;3.00;;;;;14.66;72.45;100404.47;5062436;28;45319;-54
2022/12/23 04:01:36;;;;;;;;;1.50;0.50;;;;;14.67;72.86;100400.06;5061988;28;45248;-53
2022/12/23 04:04:08;;;;;;;;;3.25;2.25;;;;;14.65;72.92;100407.19;5061979;28;45343;-53
2022/12/23 04:06:58;;;;;;;;;0.50;0.50;;;;;14.65;72.56;100413.31;5062073;28;45315;-54
2022/12/23 04:09:26;;;;;;;;;3.75;1.00;;;;;14.63;72.42;100407.22;5061990;28;45366;-54
2022/12/23 04:11:53;;;;;;;;;2.75;2.75;;;;;14.56;72.53;100393.34;5061888;28;45396;-53
2022/12/23 04:14:20;;;;;;;;;3.75;3.00;;;;;14.51;72.37;100375.94;5062266;27;45497;-52
2022/12/23 04:16:48;;;;;;;;;3.00;1.00;;;;;14.55;72.54;100374.91;5061887;28;45284;-53
2022/12/23 04:19:14;;;;;;;;;3.00;1.50;;;;;14.55;72.89;100375.78;5077549;28;45315;-53
2022/12/23 04:21:39;;;;;;;;;5.25;2.50;;;;;14.52;72.27;100375.88;5061654;28;45317;-51
2022/12/23 04:24:05;;;;;;;;;3.50;2.00;;;;;14.54;72.79;100378.44;5061391;28;46497;-53
2022/12/23 04:26:31;;;;;;;;;3.75;2.00;;;;;14.55;72.55;100377.53;5061683;28;45310;-53
2022/12/23 04:28:56;;;;;;;;;5.25;1.75;;;;;14.53;72.33;100389.97;5075278;28;45835;-52
2022/12/23 04:31:21;;;;;;;;;1.50;1.50;;;;;14.47;72.52;100389.25;5061815;28;45517;-52
2022/12/23 04:33:47;;;;;;;;;3.50;1.00;;;;;14.51;72.36;100395.28;5061716;28;46133;-51
2022/12/23 04:36:13;;;;;;;;;2.75;2.50;;;;;14.50;72.27;100390.91;5060506;28;45337;-52
2022/12/23 04:38:38;;;;;;;;;7.75;5.50;;;;;14.51;72.85;100405.88;5077102;27;45293;-53
2022/12/23 04:41:03;;;;;;;;;2.00;2.00;;;;;14.51;72.53;100405.88;5061458;28;45302;-52
2022/12/23 04:43:29;;;;;;;;;1.25;1.25;;;;;14.50;72.72;100404.13;5061547;28;46388;-51
2022/12/23 04:45:54;;;;;;;;;4.75;2.25;;;;;14.51;72.52;100399.72;5061678;28;45227;-52
2022/12/23 04:48:19;;;;;;;;;4.75;3.75;;;;;14.49;72.34;100390.97;5061648;28;45150;-53
2022/12/23 04:50:45;;;;;;;;;2.25;2.25;;;;;14.49;72.34;100375.13;5061550;28;45226;-53
2022/12/23 04:53:10;;;;;;;;;3.25;2.25;;;;;14.49;72.54;100369.81;5061131;28;45469;-52
2022/12/23 04:55:35;;;;;;;;;4.75;3.00;;;;;14.44;72.44;100356.81;5060356;28;45245;-52
2022/12/23 04:58:01;;;;;;;;;6.00;2.50;;;;;14.47;72.84;100369.88;5061405;28;45125;-52
2022/12/23 05:00:26;;;;;;;;;7.25;4.00;;;;;14.47;72.31;100361.97;5060827;28;45303;-51
2022/12/23 05:02:51;;;;;;;;;4.25;3.50;;;;;14.47;72.17;100357.53;5061055;28;45215;-53
2022/12/23 05:05:17;;;;;;;;;3.00;1.25;;;;;14.49;72.43;100359.25;5061464;28;45240;-52
2022/12/23 05:07:42;;;;;;;;;6.75;3.00;;;;;14.47;72.38;100370.75;5060151;28;45481;-52
2022/12/23 05:10:08;;;;;;;;;2.25;2.00;;;;;14.48;72.40;100363.69;5061106;28;45357;-53
2022/12/23 05:12:34;;;;;;;;;4.50;3.00;;;;;14.50;72.30;100364.47;5060950;28;45303;-54
2022/12/23 05:14:59;;;;;;;;;2.50;2.50;;;;;14.50;72.40;100369.75;5060910;28;45346;-53
2022/12/23 05:17:24;;;;;;;;;3.50;3.00;;;;;14.46;72.61;100360.22;5061084;28;45403;-52
2022/12/23 05:19:50;;;;;;;;;2.75;2.00;;;;;14.48;72.28;100361.03;5060991;28;45309;-52
2022/12/23 05:22:15;;;;;;;;;3.50;1.50;;;;;14.46;72.90;100366.41;5060800;28;46277;-51
2022/12/23 05:24:40;;;;;;;;;4.25;2.75;;;;;14.47;72.75;100369.88;5054342;28;45378;-51
2022/12/23 05:27:06;;;;;;;;;3.25;2.25;;;;;14.47;72.41;100361.97;5053490;28;45358;-53
2022/12/23 05:29:31;;;;;;;;;4.00;3.00;;;;;14.47;72.41;100361.97;5060851;28;45326;-50
2022/12/23 05:31:56;;;;;;;;;2.50;1.00;;;;;14.47;72.31;100362.81;5060653;28;46263;-52
2022/12/23 05:34:22;;;;;;;;;3.50;3.25;;;;;14.47;72.95;100354.88;5060729;28;45307;-53
2022/12/23 05:36:47;;;;;;;;;5.75;4.25;;;;;14.49;72.89;100353.97;5060846;28;45255;-52
2022/12/23 05:39:12;;;;;;;;;5.50;2.75;;;;;14.51;72.72;100349.50;5060609;28;45231;-51
2022/12/23 05:41:38;;;;;;;;;1.75;1.75;;;;;14.49;72.66;100351.31;5060329;28;45222;-54
2022/12/23 05:44:03;;;;;;;;;3.75;3.75;;;;;14.50;73.01;100351.25;5060648;28;45236;-52
2022/12/23 05:46:29;;;;;;;;;3.25;3.25;;;;;14.52;72.91;100345.94;5060856;28;45390;-53
2022/12/23 05:48:54;;;;;;;;;4.00;2.25;;;;;14.46;73.10;100339.97;5076104;27;45266;-51
2022/12/23 05:51:20;;;;;;;;;5.00;4.50;;;;;14.52;72.78;100344.16;5060478;28;45208;-52
2022/12/23 05:53:45;;;;;;;;;2.00;2.00;;;;;14.52;72.80;100323.00;5060370;28;45507;-51
2022/12/23 05:56:10;;;;;;;;;4.00;3.00;;;;;14.54;73.27;100323.81;5060479;28;45158;-49
2022/12/23 05:58:36;;;;;;;;;5.00;3.25;;;;;14.54;73.50;100323.81;5060455;28;45304;-52
2022/12/23 06:01:02;;;;;;;;;3.00;2.00;;;;;14.52;72.89;100319.50;5076239;27;45257;-52
2022/12/23 06:03:28;;;;;;;;;2.00;2.00;;;;;14.53;73.21;100327.38;5060253;28;45358;-53
2022/12/23 06:05:53;;;;;;;;;3.00;3.00;;;;;14.52;73.42;100323.00;5060233;28;45353;-51
2022/12/23 06:08:19;;;;;;;;;1.50;1.50;;;;;14.52;73.13;100323.00;5059979;28;45333;-52
2022/12/23 06:10:45;;;;;;;;;2.00;1.00;;;;;14.51;73.56;100320.41;5059006;28;46810;-53
2022/12/23 06:13:10;;;;;;;;;2.00;2.00;;;;;14.52;73.50;100322.16;5059857;28;45486;-53
2022/12/23 06:15:35;;;;;;;;;1.25;1.25;;;;;14.49;73.21;100323.13;5060401;28;45417;-52
2022/12/23 06:18:01;;;;;;;;;1.75;1.75;;;;;14.52;73.90;100330.06;5060091;28;45312;-53
2022/12/23 06:20:26;;;;;;;;;4.00;3.00;;;;;14.44;73.30;100314.50;5059995;28;45406;-52
2022/12/23 06:22:51;;;;;;;;;6.50;4.00;;;;;14.44;73.65;100306.56;5060002;28;45323;-53
2022/12/23 06:25:17;;;;;;;;;3.75;3.50;;;;;14.42;73.67;100311.03;5059797;28;45363;-54
2022/12/23 06:27:42;;;;;;;;;4.25;3.25;;;;;14.48;73.48;100326.69;5059706;28;45245;-52
2022/12/23 06:30:09;;;;;;;;;4.00;4.00;;;;;14.46;73.61;100318.81;5060069;28;45738;-54
2022/12/23 06:32:34;;;;;;;;;3.75;2.50;;;;;14.47;74.18;100317.00;5059789;28;45446;-53
2022/12/23 06:34:59;;;;;;;;;3.00;3.00;;;;;14.49;73.88;100319.59;5075595;28;45252;-54
2022/12/23 06:37:25;;;;;;;;;3.00;2.25;;;;;14.50;74.29;100310.75;5059894;28;45528;-51
2022/12/23 06:39:50;;;;;;;;;3.00;3.00;;;;;14.45;74.05;100306.50;5059493;28;45294;-51
2022/12/23 06:42:15;;;;;;;;;4.00;2.75;;;;;14.47;74.19;100303.78;5059680;28;45235;-50
2022/12/23 06:44:41;;;;;;;;;3.00;3.00;;;;;14.45;73.80;100300.34;5059960;28;45243;-51
2022/12/23 06:47:06;;;;;;;;;2.75;2.50;;;;;14.47;73.86;100294.06;5059771;28;45273;-54
2022/12/23 06:49:31;;;;;;;;;6.00;5.00;;;;;14.49;74.13;100304.63;5059638;28;45287;-53
2022/12/23 06:51:57;;;;;;;;;2.50;2.00;;;;;14.50;74.03;100300.19;5059350;28;45224;-54
2022/12/23 06:54:22;;;;;;;;;3.00;2.00;;;;;14.52;74.50;100304.47;5059673;28;45162;-53
2022/12/23 06:56:47;;;;;;;;;3.25;3.25;;;;;14.55;74.18;100295.56;5059583;28;45370;-52
2022/12/23 06:59:13;;;;;;;;;1.00;0.50;;;;;14.53;74.17;100293.00;5075129;28;46143;-53
2022/12/23 07:01:39;;;;;;;;;3.25;1.75;;;;;14.54;74.12;100302.66;5059419;28;45344;-52
2022/12/23 07:04:04;;;;;;;;;2.25;1.00;;;;;14.55;74.14;100290.28;5059691;28;45469;-52
2022/12/23 07:06:30;;;;;;;;;1.00;1.00;;;;;14.56;73.82;100289.38;5075015;28;45442;-50
2022/12/23 07:08:55;;;;;;;;;1.50;1.50;;;;;14.55;74.32;100282.34;5059720;27;45343;-53
2022/12/23 07:11:20;;;;;;;;;1.75;1.75;;;;;14.57;74.22;100273.44;5059270;28;45358;-52
2022/12/23 07:13:46;;;;;;;;;1.50;1.50;;;;;14.59;74.46;100276.03;5059601;28;45253;-53
2022/12/23 07:16:12;;;;;;;;;0.50;0.50;;;;;14.57;74.41;100268.16;5059778;27;45552;-51
2022/12/23 07:18:37;;;;;;;;;3.00;2.00;;;;;14.60;74.31;100273.34;5059454;28;45325;-51
2022/12/23 07:21:03;;;;;;;;;1.50;1.50;;;;;14.63;74.66;100267.91;5075110;27;45308;-52
2022/12/23 07:23:29;;;;;;;;;1.50;1.50;;;;;14.62;74.23;100260.06;5061858;28;45627;-51
2022/12/23 07:25:54;;;;;;;;;2.50;2.50;;;;;14.66;74.47;100263.47;5062457;27;46369;-52
2022/12/23 07:28:20;;;;;;;;;1.50;1.50;;;;;14.69;74.64;100258.94;5062539;28;46096;-52
2022/12/23 07:30:46;;;;;;;;;1.00;1.00;;;;;14.69;74.66;100258.94;5062640;27;45327;-55
2022/12/23 07:33:11;;;;;;;;;3.50;2.50;;;;;14.70;74.69;100265.91;5062794;28;45258;-52
2022/12/23 07:35:37;;;;;;;;;3.00;3.00;;;;;14.70;74.70;100265.06;5062621;28;45307;-53
2022/12/23 07:38:02;;;;;;;;;3.25;3.25;;;;;14.72;74.66;100266.72;5062348;28;46089;-53
2022/12/23 07:40:28;;;;;;;;;1.50;1.50;;;;;14.74;74.99;100269.31;5062421;28;45405;-51
2022/12/23 07:42:56;;;;;;;;;2.75;2.00;;;;;14.76;74.59;100270.97;5062616;28;45381;-51
2022/12/23 07:45:21;;;;;;;;;4.50;4.50;;;;;14.73;74.62;100262.28;5062454;28;45548;-50
2022/12/23 07:47:46;;;;;;;;;1.50;1.50;;;;;14.73;74.61;100271.09;5062388;28;45363;-52
2022/12/23 07:50:12;;;;;;;;;3.25;1.75;;;;;14.76;74.65;100283.34;5062306;28;45255;-53
2022/12/23 07:52:38;;;;;;;;;1.25;1.25;;;;;14.77;75.20;100277.16;5078046;28;45425;-52
2022/12/23 07:55:04;;;;;;;;;5.75;4.25;;;;;14.74;74.88;100286.06;5061992;28;45258;-52
2022/12/23 07:57:36;;;;;;;;;2.00;2.00;;;;;14.75;74.38;100268.41;5062089;28;46035;-53
2022/12/23 08:00:03;;;;;;;;;1.25;0.50;;;;;14.75;75.05;100265.75;5061904;28;45377;-53
2022/12/23 08:02:28;;;;;;;;;1.50;1.50;;;;;14.70;74.90;100259.78;5062209;28;45185;-52
2022/12/23 08:04:53;;;;;;;;;2.00;2.00;;;;;14.78;74.53;100260.34;5062004;28;45202;-53
2022/12/23 08:07:18;;;;;;;;;2.00;0.75;;;;;14.81;74.89;100262.88;5062198;28;45336;-53
2022/12/23 08:09:44;;;;;;;;;0.50;0.50;;;;;14.84;74.77;100262.78;5061867;28;45311;-51
2022/12/23 08:12:09;;;;;;;;;1.00;1.00;;;;;14.82;75.00;100255.78;5062167;28;45298;-54
2022/12/23 08:14:34;;;;;;;;;0.50;0.50;;;;;14.85;74.91;100267.09;5061896;28;45224;-53
2022/12/23 08:17:00;;;;;;;;;2.33;0.67;;;;;14.86;74.94;100257.41;5077691;28;46180;-53
2022/12/23 08:19:25;;;;;;;;;0.50;0.50;;;;;14.83;74.17;100252.22;5061892;28;45228;-53
2022/12/23 08:21:50;;;;;;;;;0.25;0.25;;;;;14.81;75.17;100260.22;5061969;28;45453;-53
2022/12/23 08:24:16;;;;;;;;;0.67;0.67;;;;;14.82;74.63;100245.19;5061565;28;45241;-52
2022/12/23 08:26:41;;;;;;;;;0.50;0.50;;;;;14.82;74.62;100234.63;5060254;28;46952;-53
2022/12/23 08:29:06;;;;;;;;;0.00;0.00;;;;;14.85;75.04;100245.94;5061821;28;45331;-54
2022/12/23 08:31:32;;;;;;;;;0.50;0.50;;;;;14.87;75.10;100238.81;5062017;28;45590;-56
2022/12/23 08:33:59;;;;;;;;;0.00;0.00;;;;;14.91;74.53;100239.56;5060761;28;45209;-52
2022/12/23 08:36:30;;;;;;;;;2.00;1.00;;;;;14.85;74.46;100234.53;5077352;28;46160;-55
2022/12/23 08:38:57;;;;;;;;;1.25;1.25;;;;;14.91;75.34;100235.13;5061257;28;45233;-53
2022/12/23 08:41:26;;;;;;;;;1.00;0.00;;;;;14.95;75.08;100234.09;5077326;28;45378;-54
2022/12/23 08:43:52;;;;;;;;;0.00;0.00;;;;;14.96;74.50;100232.31;5061511;28;45466;-52
2022/12/23 08:46:17;;;;;;;;;0.67;0.67;;;;;14.94;75.13;100226.19;5061419;27;45415;-52
2022/12/23 08:48:43;;;;;;;;;0.33;0.33;;;;;15.00;75.34;100230.41;5077041;27;45264;-54
2022/12/23 08:51:12;;;;;;;;;0.00;0.00;;;;;14.99;75.05;100218.09;5061587;28;45300;-53
2022/12/23 08:53:39;;;;;;;;;0.00;0.00;;;;;15.01;75.36;100218.91;5060884;28;45325;-52
2022/12/23 08:56:08;;;;;;;;;2.00;1.00;;;;;14.99;74.83;100224.22;5061364;28;45334;-50
2022/12/23 08:58:38;;;;;;;;;0.00;0.00;;;;;14.95;74.86;100220.00;5061205;28;45281;-54
2022/12/23 09:01:09;;;;;;;;;0.33;0.33;;;;;14.94;74.33;100210.31;5061356;28;45350;-53
2022/12/23 09:03:36;;;;;;;;;0.33;0.33;;;;;15.03;75.25;100194.09;5061133;28;45244;-51
2022/12/23 09:06:06;;;;;;;;;0.00;0.00;;;;;15.02;74.75;100200.31;5061047;28;46434;-53
2022/12/23 09:08:33;;;;;;;;;0.00;0.00;;;;;15.03;74.73;100204.69;5060948;28;45417;-54
2022/12/23 09:10:59;;;;;;;;;0.00;0.00;;;;;15.01;75.10;100190.63;5061078;28;45286;-53
2022/12/23 09:13:24;;;;;;;;;0.00;0.00;;;;;15.03;74.55;100188.81;5076676;28;45677;-53
2022/12/23 09:15:49;;;;;;;;;0.50;0.50;;;;;14.98;74.20;100156.38;5060967;28;46099;-52
2022/12/23 09:18:15;;;;;;;;;1.75;1.25;;;;;14.98;74.77;100139.63;5061182;28;45265;-53
2022/12/23 09:20:40;;;;;;;;;0.75;0.75;;;;;15.04;74.58;100107.63;5076759;28;45622;-53
2022/12/23 09:23:06;;;;;;;;;0.00;0.00;;;;;14.97;74.34;100087.63;5061011;28;45433;-52
2022/12/23 09:25:32;;;;;;;;;0.75;0.75;;;;;14.94;74.22;100064.81;5076426;28;45534;-51
2022/12/23 09:27:57;;;;;;;;;0.00;0.00;;;;;14.96;74.48;100084.16;5060653;28;45593;-53
2022/12/23 09:30:24;;;;;;;;;0.75;0.75;;;;;14.95;74.47;100088.59;5060986;28;45399;-53
2022/12/23 09:32:49;;;;;;;;;0.67;0.67;;;;;15.08;74.63;100109.22;5060888;28;45396;-52
2022/12/23 09:35:15;;;;;;;;;2.75;0.75;;;;;15.08;74.68;100125.97;5060524;28;45441;-53
2022/12/23 09:37:40;;;;;;;;;1.00;0.75;;;;;15.14;75.01;100161.88;5061029;28;45316;-53
2022/12/23 09:40:06;;;;;;;;;0.75;0.75;;;;;15.14;74.51;100171.59;5076257;28;45327;-53
2022/12/23 09:43:00;;;;;;;;;0.75;0.75;;;;;15.19;74.65;100173.13;5060732;28;45331;-54
2022/12/23 09:45:25;;;;;;;;;1.00;1.00;;;;;15.20;75.27;100190.72;5060470;28;45490;-50
2022/12/23 09:47:54;;;;;;;;;0.00;0.00;;;;;15.15;74.99;100191.84;5060683;28;45328;-52
2022/12/23 09:50:22;;;;;;;;;1.00;1.00;;;;;15.19;75.16;100190.78;5060686;28;45252;-52
2022/12/23 09:53:10;;;;;;;;;0.00;0.00;;;;;15.20;75.19;100182.78;5059995;28;45491;-54
2022/12/23 09:55:41;;;;;;;;;0.00;0.00;;;;;15.21;74.99;100171.28;5060822;28;46433;-54
2022/12/23 09:58:27;;;;;;;;;0.00;0.00;;;;;15.27;75.08;100188.69;5060272;28;45615;-53
2022/12/23 10:01:01;;;;;;;;;0.00;0.00;;;;;15.24;74.54;100194.97;5060515;28;45217;-54
2022/12/23 10:04:17;;;;;;;;;0.00;0.00;;;;;15.25;74.98;100196.69;5060135;28;45434;-54
2022/12/23 10:06:47;;;;;;;;;0.00;0.00;;;;;15.31;75.11;100192.06;5060070;28;46129;-53
2022/12/23 10:09:16;;;;;;;;;0.00;0.00;;;;;15.28;75.12;100185.97;5059996;28;45370;-54
2022/12/23 10:11:44;;;;;;;;;0.00;0.00;;;;;15.35;75.00;100177.78;5060039;28;45311;-54
2022/12/23 10:14:17;;;;;;;;;0.33;0.00;;;;;15.35;74.78;100169.84;5060152;28;45520;-53
2022/12/23 10:16:54;;;;;;;;;0.67;0.00;;;;;15.35;75.27;100172.47;5060193;28;46946;-54
2022/12/23 10:19:29;;;;;;;;;0.67;0.00;;;;;15.42;75.02;100171.28;5060033;28;45452;-54
2022/12/23 10:22:18;;;;;;;;;0.00;0.00;;;;;15.44;74.73;100167.66;5060133;28;45397;-55
2022/12/23 10:24:45;;;;;;;;;0.00;0.00;;;;;15.43;75.51;100184.47;5060051;28;45158;-54
2022/12/23 10:27:14;;;;;;;;;0.00;0.00;;;;;15.44;74.74;100164.13;5059669;28;45692;-53
2022/12/23 10:29:41;;;;;;;;;0.00;0.00;;;;;15.46;74.90;100164.94;5075592;28;45355;-54
2022/12/23 10:32:39;;;;;;;;;0.00;0.00;;;;;15.48;74.83;100162.22;5059989;28;45505;-52
2022/12/23 10:35:32;;;;;;;;;0.00;0.00;;;;;15.47;75.28;100148.13;5060013;28;45161;-53
2022/12/23 10:38:35;;;;;;;;;0.00;0.00;;;;;15.51;75.42;100155.00;5059627;28;46379;-53
2022/12/23 10:41:28;;;;;;;;;0.00;0.00;;;;;15.50;75.28;100161.22;5059623;28;45403;-53
2022/12/23 10:43:53;;;;;;;;;0.00;0.00;;;;;15.51;75.47;100154.13;5075549;28;45443;-54
2022/12/23 10:46:27;;;;;;;;;0.00;0.00;;;;;15.51;75.01;100155.00;5059860;28;45490;-54
2022/12/23 10:49:05;;;;;;;;;0.00;0.00;;;;;15.54;75.33;100168.09;5059666;28;45358;-54
2022/12/23 10:51:42;;;;;;;;;0.00;0.00;;;;;15.55;75.29;100161.03;5059498;28;45505;-54
2022/12/23 10:54:16;;;;;;;;;0.00;0.00;;;;;15.55;74.79;100161.03;5059798;28;45329;-54
2022/12/23 10:56:43;;;;;;;;;0.00;0.00;;;;;15.59;74.66;100168.75;5074690;28;45598;-54
2022/12/23 10:59:14;;;;;;;;;0.00;0.00;;;;;15.63;74.95;100166.81;5063184;28;45681;-54
2022/12/23 11:01:46;;;;;;;;;0.33;0.00;;;;;15.64;74.74;100167.69;5062807;28;45297;-53
2022/12/23 11:04:21;;;;;;;;;0.00;0.00;;;;;15.63;74.66;100158.88;5063335;28;45301;-53
2022/12/23 11:06:50;;;;;;;;;0.00;0.00;;;;;15.71;74.68;100154.13;5063054;28;45439;-54
2022/12/23 11:09:21;;;;;;;;;0.00;0.00;;;;;15.74;74.79;100155.75;5062737;28;45472;-54
2022/12/23 11:12:03;;;;;;;;;0.00;0.00;;;;;15.73;74.53;100149.59;5063000;28;45271;-53
2022/12/23 11:14:49;;;;;;;;;0.00;0.00;;;;;15.81;74.54;100161.63;5062977;28;45423;-54
2022/12/23 11:17:24;;;;;;;;;2.00;0.00;;;;;15.83;74.89;100181.00;5063084;28;45205;-53
2022/12/23 11:20:11;;;;;;;;;0.00;0.00;;;;;15.84;74.93;100175.63;5062610;28;45249;-54
2022/12/23 11:22:51;;;;;;;;;0.00;0.00;;;;;15.85;74.67;100174.72;5062723;28;45306;-53
2022/12/23 11:25:17;;;;;;;;;0.00;0.00;;;;;15.91;74.91;100200.94;5062896;28;45389;-54
2022/12/23 11:27:45;;;;;;;;;0.00;0.00;;;;;15.90;74.40;100201.84;5062477;28;45260;-53
2022/12/23 11:30:18;;;;;;;;;0.00;0.00;;;;;15.96;74.35;100186.59;5062843;28;46357;-54
2022/12/23 11:32:43;;;;;;;;;0.00;0.00;;;;;15.94;74.06;100189.34;5062591;28;45187;-54
2022/12/23 11:35:30;;;;;;;;;0.00;0.00;;;;;15.98;74.31;100190.06;5062874;28;45300;-54
2022/12/23 11:37:57;;;;;;;;;0.00;0.00;;;;;15.98;74.37;100182.13;5062789;28;45429;-54
2022/12/23 11:40:29;;;;;;;;;0.00;0.00;;;;;16.01;74.35;100185.50;5062316;28;47275;-53
2022/12/23 11:42:58;;;;;;;;;0.00;0.00;;;;;16.09;74.08;100203.69;5062480;28;45287;-53
2022/12/23 11:45:27;;;;;;;;;0.00;0.00;;;;;16.05;73.90;100196.78;5062635;28;45373;-54
2022/12/23 11:47:53;;;;;;;;;1.00;1.00;;;;;16.11;74.45;100190.34;5077833;28;45328;-56
2022/12/23 11:50:36;;;;;;;;;0.00;0.00;;;;;16.14;73.87;100185.78;5062202;28;45355;-54
2022/12/23 11:53:22;;;;;;;;;0.00;0.00;;;;;16.17;73.65;100168.88;5062031;28;45342;-54
2022/12/23 11:56:05;;;;;;;;;0.00;0.00;;;;;16.18;73.82;100191.78;5062591;28;45330;-54
2022/12/23 11:58:57;;;;;;;;;0.00;0.00;;;;;16.20;73.87;100169.59;5062169;28;45617;-54
2022/12/23 12:01:24;;;;;;;;;0.00;0.00;;;;;16.23;73.54;100180.03;5061166;28;45579;-52